Fish Lake Valley, Nevada Weather observations

Data are for 10 minute period ending at time listed.
 Day   Time    Ave.   Ave.  Ave.  Vector   Max.   Stn.    Total    Solar   Ave.  
  of    of     Air    Rel.  Wind   Wind    Wind   Baro.  Precip.   Rad.    Soil  
Year   Day     Temp.  Hum.  Speed  Dir.    Gust   Pres.                    Temp. 
2016   (PST)    F      %     mph   deg.    mph     mb.     in.     W/m2     F    
--------------------------------------------------------------------------------- 
 271   13:50   83.9    12    5.3   125      9.1   853.1    0.00     724    65.8  
 271   14:00   83.9    12    7.3   144     15.2   853.1    0.00     702    65.9  
 271   14:10   84.6    12    4.9   156     12.3   853.0    0.00     679    65.9  
 271   14:20   85.3    12    7.0   169     12.0   853.0    0.00     654    66.1  
 271   14:30   85.1    12    4.8   138     11.2   852.9    0.00     628    66.1  
 271   14:40   84.1    12    7.0   136     12.4   852.8    0.00     600    66.3  
 271   14:50   83.4    12    6.9   127     12.5   852.7    0.00     571    66.4  
 271   15:00   83.8    12    6.9   131     11.7   852.6    0.00     542    66.5  
 271   15:10   83.5    13    7.1   132     11.1   852.5    0.00     511    66.6  
 271   15:20   84.3    12    6.2   128     11.9   852.4    0.00     479    66.7  
 271   15:30   83.4    13    8.3   130     12.2   852.3    0.00     447    66.8  
 271   15:40   83.6    13    7.1   144     10.9   852.3    0.00     413    67.0  
 271   15:50   84.0    13    7.1   162     13.0   852.2    0.00     379    67.1  
 271   16:00   84.1    13    5.1   144      8.4   852.2    0.00     343    67.2  
 271   16:10   83.6    13    7.6   164     11.8   852.2    0.00     309    67.4  
 271   16:20   83.6    13    6.1   168      9.0   852.2    0.00     274    67.5  
 271   16:30   83.3    13    5.6   150      8.2   852.1    0.00     240    67.6  
 271   16:40   82.1    16    5.9   145      9.5   852.1    0.00     207    67.7  
 271   16:50   80.1    20    6.0   138      7.4   852.1    0.00     175    67.9  
 271   17:00   78.4    21    6.0   141      7.9   852.1    0.00     142    68.0  
 271   17:10   77.0    23    6.2   144      7.9   852.0    0.00      72    68.1  
 271   17:20   74.1    25    6.5   137      7.7   852.0    0.00      16    68.3  
 271   17:30   71.8    28    5.8   139      6.8   852.1    0.00      12    68.4  
 271   17:40   69.1    32    5.7   139      6.4   852.1    0.00       9    68.5  
 271   17:50   67.2    34    6.1   141      7.1   852.2    0.00       6    68.6  
 271   18:00   65.1    42    5.0   131      7.0   852.3    0.00       3    68.7  
 271   18:10   61.7    52    4.7   120      6.0   852.4    0.00       3    68.8  
 271   18:20   62.7    37    6.1   142      7.6   852.5    0.00       2    68.9  
 271   18:30   63.8    32    6.9   151      7.5   852.6    0.00       2    69.0  
 271   18:40   63.1    32    5.6   170      6.8   852.6    0.00       2    69.1  
 271   18:50   62.4    33    5.9   181      7.2   852.6    0.00       2    69.2  
 271   19:00   63.0    29    6.2   166      7.4   852.6    0.00       2    69.3  
 271   19:10   63.2    28    7.3   160      8.5   852.8    0.00       2    69.4  
 271   19:20   63.4    26    7.8   164      8.5   852.9    0.00       2    69.5  
 271   19:30   61.3    30    7.8   170      8.5   853.0    0.00       2    69.5  
 271   19:40   60.5    30    8.2   178     10.1   853.1    0.00       2    69.6  
 271   19:50   61.9    27    7.9   176      9.5   853.2    0.00       2    69.7  
 271   20:00   63.0    24    7.9   160      9.1   853.3    0.00       2    69.7  
 271   20:10   63.0    25    9.1   169     10.9   853.3    0.00       2    69.8  
 271   20:20   61.2    28    9.4   178     10.5   853.3    0.00       2    69.8  
 271   20:30   60.7    32    7.2   166      9.8   853.3    0.00       2    69.9  
 271   20:40   58.2    39    4.9   139      6.2   853.4    0.00       2    69.9  
 271   20:50   55.9    42    5.6   157      7.3   853.5    0.00       2    69.9  
 271   21:00   58.2    32    5.9   164      8.9   853.6    0.00       2    69.9  
 271   21:10   57.8    33    8.3   172      9.9   853.5    0.00       2    70.0  
 271   21:20   57.3    34    7.6   160      8.4   853.5    0.00       2    70.0  
 271   21:30   56.9    34    8.5   169      9.8   853.6    0.00       2    70.0  
 271   21:40   56.9    35    8.7   165      9.8   853.6    0.00       2    70.0  
 271   21:50   56.8    38    8.0   164      9.6   853.6    0.00       2    70.0  
 271   22:00   56.9    37    8.4   161     10.3   853.6    0.00       2    70.0  
 271   22:10   57.4    34    8.4   164      9.6   853.6    0.00       2    69.9  
 271   22:20   58.2    34    8.6   170     10.3   853.6    0.00       2    69.9  
 271   22:30   56.2    35    7.7   176      8.9   853.7    0.00       2    69.9  
 271   22:40   55.5    36    8.2   174      9.5   853.7    0.00       2    69.9  
 271   22:50   55.3    37    8.6   178     10.0   853.6    0.00       2    69.9  
 271   23:00   54.9    37    8.7   176     10.0   853.5    0.00       2    69.9  
 271   23:10   55.6    37    9.0   168     10.3   853.5    0.00       2    69.8  
 271   23:20   55.4    37    8.1   175     10.1   853.5    0.00       2    69.8  
 271   23:30   54.1    39    8.4   179     10.1   853.6    0.00       2    69.8  
 271   23:40   55.0    36    8.7   174     10.0   853.6    0.00       2    69.7  
 271   23:50   55.0    36    8.5   173      9.8   853.6    0.00       2    69.7  
 272    0:00   54.1    39    8.0   177      9.5   853.6    0.00       2    69.6  
 272    0:10   53.9    38    7.8   172      8.6   853.7    0.00       2    69.6  
 272    0:20   53.3    39    7.9   173      9.0   853.7    0.00       2    69.5  
 272    0:30   54.4    37    9.4   170     11.5   853.7    0.00       2    69.5  
 272    0:40   55.4    35   10.6   174     12.7   853.7    0.00       2    69.4  
 272    0:50   55.7    35   11.2   177     15.2   853.6    0.00       2    69.4  
 272    1:00   56.2    34   10.7   171     12.8   853.7    0.00       2    69.3  
 272    1:10   55.3    35    9.9   172     12.0   853.7    0.00       2    69.3  
 272    1:20   53.5    38   10.2   183     12.1   853.7    0.00       2    69.2  
 272    1:30   54.6    36   10.8   181     12.6   853.7    0.00       2    69.2  
 272    1:40   56.5    33    9.6   178     11.7   853.7    0.00       2    69.1  
 272    1:50   57.4    32    8.7   179     10.3   853.8    0.00       2    69.0  
 272    2:00   57.3    32    7.7   178      9.5   853.8    0.00       2    69.0  
 272    2:10   56.9    32    6.7   174      8.1   853.8    0.00       2    68.9  
 272    2:20   57.2    32    7.0   174      8.7   853.9    0.00       2    68.9  
 272    2:30   56.8    34    4.9   166      7.2   854.0    0.00       2    68.8  
 272    2:40   52.5    44    2.6   325      4.3   853.9    0.00       2    68.7  
 272    2:50   47.8    51    3.4   346      5.3   854.0    0.00       2    68.7  
 272    3:00   48.1    45    2.5   340      3.5   854.2    0.00       2    68.6  
 272    3:10   48.9    46    1.4    22      2.9   854.2    0.00       2    68.6  
 272    3:20   49.6    48    1.6    98      2.4   854.2    0.00       2    68.5  
 272    3:30   49.7    47    1.3   190      2.4   854.3    0.00       2    68.4  
 272    3:40   50.7    43    2.0   263      2.8   854.4    0.00       2    68.4  
 272    3:50   50.0    41    0.7   287      1.9   854.4    0.00       2    68.3  
 272    4:00   48.6    44    1.8   332      3.0   854.5    0.00       2    68.3  
 272    4:10   46.4    55    1.9   360      2.8   854.5    0.00       2    68.2  
 272    4:20   46.2    51    2.4   310      3.3   854.7    0.00       2    68.1  
 272    4:30   47.5    46    2.4   312      3.4   854.7    0.00       2    68.1  
 272    4:40   47.2    42    2.8   304      3.6   854.7    0.00       2    68.0  
 272    4:50   46.3    42    2.2   276      3.3   854.8    0.00       2    67.9  
 272    5:00   46.1    43    2.1   281      3.3   854.8    0.00       2    67.9  
 272    5:10   46.5    44    2.9   249      3.9   854.9    0.00       2    67.8  
 272    5:20   46.0    44    4.3   242      5.2   855.0    0.00       2    67.7  
 272    5:30   46.0    43    3.9   236      4.8   855.2    0.00       2    67.7  
 272    5:40   45.1    48    1.4   256      4.3   855.3    0.00       3    67.6  
 272    5:50   43.8    55    0.9    70      3.6   855.4    0.00       6    67.6  
 272    6:00   42.3    64    3.0   139      4.5   855.5    0.00      10    67.5  
 272    6:10   41.9    65    2.9   185      3.5   855.4    0.00      14    67.4  
 272    6:20   43.1    60    2.6   196      3.7   855.5    0.00      36    67.4  
 272    6:30   45.3    56    1.4    95      2.5   855.5    0.00     106    67.3  
 272    6:40   46.8    63    2.4   125      2.9   855.6    0.00     147    67.2  
 272    6:50   48.0    63    3.0   142      4.3   855.6    0.00     181    67.2  
 272    7:00   51.0    53    3.2   158      4.3   855.6    0.00     215    67.1  
 272    7:10   54.3    46    2.1   149      3.0   855.5    0.00     251    67.0  
 272    7:20   56.5    43    1.7   130      2.7   855.5    0.00     226    67.0  
 272    7:30   56.5    45    2.6   124      3.3   855.6    0.00     218    66.9  
 272    7:40   56.5    50    3.4   120      5.2   855.7    0.00     336    66.8  
 272    7:50   57.8    44    3.5   123      5.0   855.7    0.00     388    66.8  
 272    8:00   60.5    40    3.5   124      4.6   855.7    0.00     384    66.7  
 272    8:10   62.6    40    2.7    99      3.9   855.7    0.00     432    66.7  
 272    8:20   65.9    31    2.4    89      4.0   855.6    0.00     471    66.6  
 272    8:30   67.1    28    3.1   100      5.1   855.6    0.00     542    66.5  
 272    8:40   68.7    28    2.1   101      4.1   855.6    0.00     572    66.5  
 272    8:50   71.8    24    0.9   196      4.3   855.6    0.00     462    66.4  
 272    9:00   72.0    24    1.0   164      2.9   855.5    0.00     507    66.4  
 272    9:10   73.3    24    2.2   341      5.7   855.5    0.00     686    66.3  
 272    9:20   71.1    26    4.2   319      6.7   855.5    0.00     665    66.3  
 272    9:30   71.9    26    4.0   338      7.3   855.4    0.00     671    66.2  
 272    9:40   73.0    24    3.2    14      5.5   855.2    0.00     691    66.2  
 272    9:50   74.6    23    3.2   354      8.1   855.1    0.00     713    66.1  
 272   10:00   75.5    23    4.9   349      8.3   854.9    0.00     733    66.1  
 272   10:10   77.1    22    3.8   164      9.2   854.8    0.00     747    66.1  
 272   10:20   78.1    20    8.2   145     14.4   854.6    0.00     765    66.0  
 272   10:30   78.3    18    7.7   142     13.2   854.5    0.00     781    66.0  
 272   10:40   78.5    18    8.7   144     14.4   854.4    0.00     794    66.0  
 272   10:50   79.1    18    9.5   144     13.7   854.3    0.00     810    65.9  
 272   11:00   79.0    18   10.9   140     18.2   854.2    0.00     834    65.9  
 272   11:10   79.3    19   12.1   144     17.7   854.1    0.00     697    65.9  
 272   11:20   79.9    19   12.7   144     16.8   854.1    0.00     936    65.9  
 272   11:30   80.3    19   13.4   144     19.3   854.0    0.00     968    65.9  
 272   11:40   80.4    19   13.6   138     18.7   853.9    0.00     946    65.9  
 272   11:50   80.5    19   13.8   139     19.3   853.9    0.00     938    65.9  
 272   12:00   80.2    19   13.0   140     18.0   853.8    0.00     929    65.9  
 272   12:10   80.6    20   13.2   138     19.0   853.8    0.00     884    65.9  
 272   12:20   80.1    20   15.7   144     21.8   853.7    0.00     790    66.0  
 272   12:30   79.5    20   16.2   143     21.8   853.6    0.00     573    66.0  
 272   12:40   79.4    21   14.7   135     19.9   853.6    0.00     874    66.1  
 272   12:50   80.0    20   13.2   135     20.1   853.6    0.00     893    66.1  
 272   13:00   80.8    19   13.7   145     20.4   853.5    0.00     989    66.2  
 272   13:10   80.9    20   16.4   141     22.7   853.5    0.00     922    66.2  
 272   13:20   79.6    22   18.6   144     25.4   853.4    0.00     372    66.3  
 272   13:30   77.9    24   16.8   137     21.0   853.4    0.00     632    66.4  
 272   13:40   79.3    23   16.9   138     22.3   853.4    0.00     933    66.5  

Return to Fish Lake Valley, Nevada graphs page.


Western Regional Climate Center,wrcc@dri.edu